createdAt,value
2022-11-15T07:24:38.476Z,68.95
2022-11-15T07:27:41.045Z,56.58
2022-11-15T07:38:59.125Z,56.95
2022-11-15T07:42:19.792Z,64.97
2022-11-15T07:45:22.576Z,54.72
2022-11-15T07:52:55.408Z,49.40
2022-11-15T07:55:57.852Z,52.20
2022-11-15T07:59:01.728Z,60.90
2022-11-15T08:02:04.568Z,44.03
2022-11-15T08:05:07.529Z,50.03
2022-11-15T08:08:12.931Z,49.20
2022-11-15T08:11:15.355Z,49.70
2022-11-15T08:14:17.929Z,54.03
2022-11-15T08:17:20.369Z,49.13
2022-11-15T08:20:22.934Z,52.33
2022-11-15T08:23:26.713Z,49.13
2022-11-15T08:26:30.957Z,45.55
2022-11-15T08:29:33.401Z,49.42
2022-11-15T08:32:35.856Z,51.15
2022-11-15T08:35:38.316Z,58.42
2022-11-15T08:38:42.104Z,52.08
2022-11-15T08:41:45.597Z,48.08
2022-11-15T08:44:48.049Z,47.30
2022-11-15T08:47:54.199Z,40.88
2022-11-15T08:50:57.993Z,42.70
2022-11-15T08:54:01.745Z,50.60
2022-11-15T08:57:04.408Z,50.80
2022-11-15T09:00:08.140Z,48.53
2022-11-15T09:03:11.107Z,46.55
2022-11-15T09:06:13.592Z,52.53
2022-11-15T09:09:17.360Z,60.05
2022-11-15T09:12:19.823Z,79.20
2022-11-15T09:15:22.294Z,73.00
2022-11-15T09:18:24.720Z,90.22
2022-11-15T09:21:27.192Z,50.63
2022-11-15T09:24:30.981Z,49.25
2022-11-15T09:27:33.593Z,64.60
2022-11-15T09:30:36.380Z,48.85
2022-11-15T09:33:39.041Z,50.30
2022-11-15T09:36:41.506Z,53.28
2022-11-15T09:39:45.273Z,54.42
2022-11-15T09:43:00.733Z,46.95
2022-11-15T09:46:15.290Z,47.50
2022-11-15T09:49:19.061Z,43.28
2022-11-15T09:52:23.321Z,42.83
2022-11-15T09:55:36.815Z,37.15
2022-11-15T09:58:44.539Z,41.67
2022-11-15T10:01:54.501Z,44.75
2022-11-15T10:04:59.609Z,43.70
2022-11-15T10:08:08.154Z,40.10
2022-11-15T10:14:39.332Z,42.28
2022-11-15T10:18:07.365Z,39.60
2022-11-15T10:21:17.338Z,36.78
2022-11-15T10:24:21.996Z,37.67
2022-11-15T10:27:26.585Z,38.55
2022-11-15T10:30:35.106Z,40.25
2022-11-15T10:33:39.570Z,38.17
2022-11-15T10:36:50.218Z,35.13
2022-11-15T10:40:05.247Z,36.53
2022-11-15T10:43:17.295Z,37.28
2022-11-15T10:49:56.757Z,37.47
2022-11-15T10:53:01.000Z,37.08
2022-11-15T10:56:07.394Z,39.58
2022-11-15T10:59:21.225Z,35.75
2022-11-15T11:02:33.674Z,33.42
2022-11-15T11:05:42.242Z,35.53
2022-11-15T11:08:57.134Z,36.53
2022-11-15T11:12:00.753Z,33.47
2022-11-15T11:15:13.297Z,38.17
2022-11-15T11:18:28.312Z,32.88
2022-11-15T11:21:42.250Z,31.77
2022-11-15T11:24:49.849Z,31.88
2022-11-15T11:28:05.912Z,30.60
2022-11-15T11:31:20.046Z,31.95
2022-11-15T11:34:48.183Z,32.10
2022-11-15T11:37:53.490Z,28.40
2022-11-15T11:41:05.512Z,28.77
2022-11-15T11:44:22.803Z,27.08
2022-11-15T11:47:34.174Z,26.98
2022-11-15T11:50:39.658Z,31.92
2022-11-15T11:53:49.302Z,30.02
2022-11-15T11:56:53.259Z,29.42
2022-11-15T12:00:03.092Z,31.50
2022-11-15T12:03:13.627Z,28.80
2022-11-15T12:06:32.428Z,26.70
2022-11-15T12:09:40.189Z,28.20
2022-11-15T12:12:49.592Z,26.77
2022-11-15T12:15:58.701Z,25.35
2022-11-15T12:19:04.695Z,25.25
2022-11-15T12:22:14.328Z,30.10
2022-11-15T12:25:22.204Z,28.52
2022-11-15T12:28:58.389Z,28.92
2022-11-15T12:32:04.697Z,27.23
2022-11-15T12:35:26.324Z,25.58
2022-11-15T12:38:57.696Z,23.77
2022-11-15T12:42:33.603Z,26.57
2022-11-15T12:45:38.353Z,26.77
2022-11-15T12:48:59.819Z,29.27
2022-11-15T12:52:09.386Z,30.75
2022-11-15T12:55:32.187Z,27.02
2022-11-15T12:58:43.864Z,32.40
2022-11-15T13:02:19.278Z,29.85
2022-11-15T13:06:00.289Z,26.42
2022-11-15T13:09:05.017Z,29.15
2022-11-15T13:12:10.603Z,37.00
2022-11-15T13:15:42.832Z,31.48
2022-11-15T13:18:54.732Z,34.72
2022-11-15T13:22:14.749Z,32.13
2022-11-15T13:25:37.621Z,33.88
2022-11-15T13:28:45.334Z,34.85
2022-11-15T13:31:49.084Z,34.40
2022-11-15T13:34:53.751Z,36.03
2022-11-15T13:37:58.764Z,35.58
2022-11-15T13:41:19.046Z,41.08
2022-11-15T13:44:24.009Z,35.30
2022-11-15T13:47:28.959Z,34.60
2022-11-15T13:50:35.236Z,40.28
2022-11-15T13:53:42.085Z,39.25
2022-11-15T13:56:49.835Z,54.25
2022-11-15T13:59:54.967Z,41.33
2022-11-15T14:02:59.150Z,40.50
2022-11-15T14:06:08.381Z,39.33
2022-11-15T14:09:34.920Z,42.65
2022-11-15T14:12:39.525Z,37.13
2022-11-15T14:15:42.016Z,42.85
2022-11-15T14:18:47.304Z,40.80
2022-11-15T14:22:16.094Z,45.70
2022-11-15T14:25:21.047Z,45.60
2022-11-15T14:28:39.085Z,43.13
2022-11-15T14:31:43.881Z,49.10
2022-11-15T14:34:47.077Z,48.03
2022-11-15T14:37:49.944Z,49.30
2022-11-15T14:40:52.628Z,67.82
2022-11-15T14:43:56.408Z,91.05
2022-11-15T14:46:58.850Z,55.70
2022-11-15T14:50:01.296Z,62.90
2022-11-15T14:53:04.797Z,74.60
2022-11-15T14:56:07.342Z,68.20
2022-11-15T14:59:11.090Z,75.70
2022-11-15T15:02:18.715Z,52.67
2022-11-15T15:05:23.167Z,51.83
2022-11-15T15:08:25.818Z,81.57
2022-11-15T15:11:31.419Z,67.00
2022-11-15T15:14:35.164Z,89.05
2022-11-15T15:17:37.584Z,48.42
2022-11-15T15:20:41.683Z,59.90
2022-11-15T15:23:44.227Z,76.75
2022-11-15T15:26:46.693Z,64.28
2022-11-15T15:29:50.571Z,56.00
2022-11-15T15:32:53.032Z,55.60
2022-11-15T15:35:55.511Z,65.50
2022-11-15T15:38:57.970Z,66.68
2022-11-15T15:42:00.442Z,67.40
2022-11-15T15:45:04.965Z,96.38
2022-11-15T15:48:07.578Z,49.17
2022-11-15T15:51:15.661Z,65.55
2022-11-15T15:54:21.159Z,83.83
2022-11-15T15:57:23.621Z,82.93
2022-11-15T16:00:27.755Z,87.43
2022-11-15T16:03:30.248Z,71.45
2022-11-15T16:06:39.205Z,58.22
2022-11-15T16:09:59.125Z,82.25
2022-11-15T16:13:01.656Z,76.20
2022-11-15T16:16:14.136Z,76.80
2022-11-15T16:19:16.562Z,70.88
2022-11-15T16:22:19.011Z,83.93
2022-11-15T16:25:21.477Z,89.40
2022-11-15T16:28:25.481Z,74.43
2022-11-15T16:31:29.281Z,56.22
2022-11-15T16:34:33.910Z,65.60
2022-11-15T16:37:40.819Z,77.32
2022-11-15T16:40:43.317Z,95.57
2022-11-15T16:43:47.568Z,73.78
2022-11-15T16:46:52.678Z,73.65
2022-11-15T16:49:55.125Z,72.95
2022-11-15T16:52:59.012Z,74.50
2022-11-15T16:56:01.483Z,83.30
2022-11-15T16:59:03.925Z,81.00
2022-11-15T17:02:12.766Z,81.45
2022-11-15T17:05:20.129Z,75.70
2022-11-15T17:08:24.197Z,74.10
2022-11-15T17:11:26.661Z,83.63
2022-11-15T17:14:29.084Z,100.97
2022-11-15T17:17:33.350Z,109.07
2022-11-15T17:20:35.773Z,81.40
2022-11-15T17:23:38.227Z,82.75
2022-11-15T17:26:42.824Z,135.93
2022-11-15T17:29:45.261Z,75.10
2022-11-15T17:32:49.791Z,102.50
2022-11-15T17:35:57.463Z,107.18
2022-11-15T17:39:00.231Z,89.82
2022-11-15T17:42:02.885Z,65.05
2022-11-15T17:45:09.863Z,60.22
